sensor_id;sensor_type;location;lat;lon;timestamp;pressure;altitude;pressure_sealevel;temperature;humidity
58223;BME280;44020;50.890;15.796;2023-02-22T00:03:25;97660.61;;;6.03;99.94
58223;BME280;44020;50.890;15.796;2023-02-22T00:09:39;97665.69;;;5.97;99.86
58223;BME280;44020;50.890;15.796;2023-02-22T00:12:32;97666.33;;;5.94;99.79
58223;BME280;44020;50.890;15.796;2023-02-22T00:15:20;97669.90;;;5.93;100.00
58223;BME280;44020;50.890;15.796;2023-02-22T00:17:58;97672.89;;;5.93;99.89
58223;BME280;44020;50.890;15.796;2023-02-22T00:20:41;97670.58;;;5.94;99.92
58223;BME280;44020;50.890;15.796;2023-02-22T00:26:22;97670.41;;;5.90;99.91
58223;BME280;44020;50.890;15.796;2023-02-22T00:32:26;97667.08;;;5.87;99.95
58223;BME280;44020;50.890;15.796;2023-02-22T00:35:24;97666.90;;;5.87;100.00
58223;BME280;44020;50.890;15.796;2023-02-22T00:41:55;97682.30;;;5.92;99.99
58223;BME280;44020;50.890;15.796;2023-02-22T00:45:04;97678.75;;;5.92;100.00
58223;BME280;44020;50.890;15.796;2023-02-22T00:51:24;97676.04;;;5.94;99.97
58223;BME280;44020;50.890;15.796;2023-02-22T00:57:25;97675.91;;;5.90;99.99
58223;BME280;44020;50.890;15.796;2023-02-22T01:00:14;97677.49;;;5.90;100.00
58223;BME280;44020;50.890;15.796;2023-02-22T01:19:46;97673.13;;;5.71;99.97
58223;BME280;44020;50.890;15.796;2023-02-22T01:29:28;97670.27;;;5.80;100.00
58223;BME280;44020;50.890;15.796;2023-02-22T01:32:45;97670.68;;;5.81;100.00
58223;BME280;44020;50.890;15.796;2023-02-22T01:35:34;97671.66;;;5.76;100.00
58223;BME280;44020;50.890;15.796;2023-02-22T01:38:10;97669.59;;;5.72;100.00
58223;BME280;44020;50.890;15.796;2023-02-22T01:40:41;97670.40;;;5.70;99.97
58223;BME280;44020;50.890;15.796;2023-02-22T01:43:48;97673.96;;;5.69;100.00
58223;BME280;44020;50.890;15.796;2023-02-22T01:46:38;97674.33;;;5.69;100.00
58223;BME280;44020;50.890;15.796;2023-02-22T01:49:29;97672.79;;;5.68;100.00
58223;BME280;44020;50.890;15.796;2023-02-22T01:52:03;97674.09;;;5.63;99.97
58223;BME280;44020;50.890;15.796;2023-02-22T01:54:38;97675.66;;;5.56;100.00
58223;BME280;44020;50.890;15.796;2023-02-22T01:57:38;97675.09;;;5.54;100.00
58223;BME280;44020;50.890;15.796;2023-02-22T02:00:15;97672.06;;;5.54;100.00
58223;BME280;44020;50.890;15.796;2023-02-22T02:02:51;97665.55;;;5.58;100.00
58223;BME280;44020;50.890;15.796;2023-02-22T02:11:53;97657.52;;;5.56;100.00
58223;BME280;44020;50.890;15.796;2023-02-22T02:15:38;97658.77;;;5.56;100.00
58223;BME280;44020;50.890;15.796;2023-02-22T02:17:51;97660.73;;;5.52;99.97
58223;BME280;44020;50.890;15.796;2023-02-22T02:28:02;97651.89;;;5.52;100.00
58223;BME280;44020;50.890;15.796;2023-02-22T02:56:56;97640.34;;;5.61;100.00
58223;BME280;44020;50.890;15.796;2023-02-22T02:59:51;97643.38;;;5.64;100.00
58223;BME280;44020;50.890;15.796;2023-02-22T03:32:53;97641.82;;;5.74;100.00
58223;BME280;44020;50.890;15.796;2023-02-22T03:38:12;97643.04;;;5.74;100.00
58223;BME280;44020;50.890;15.796;2023-02-22T03:41:47;97643.27;;;5.76;100.00
58223;BME280;44020;50.890;15.796;2023-02-22T03:44:48;97646.31;;;5.72;100.00
58223;BME280;44020;50.890;15.796;2023-02-22T03:47:31;97643.30;;;5.69;100.00
58223;BME280;44020;50.890;15.796;2023-02-22T03:50:11;97643.05;;;5.67;100.00
58223;BME280;44020;50.890;15.796;2023-02-22T03:56:08;97643.52;;;5.65;100.00
58223;BME280;44020;50.890;15.796;2023-02-22T03:58:48;97640.99;;;5.62;100.00
58223;BME280;44020;50.890;15.796;2023-02-22T04:01:27;97643.98;;;5.62;100.00
58223;BME280;44020;50.890;15.796;2023-02-22T04:07:26;97640.70;;;5.61;100.00
58223;BME280;44020;50.890;15.796;2023-02-22T04:10:14;97639.46;;;5.61;99.99
58223;BME280;44020;50.890;15.796;2023-02-22T04:12:44;97645.36;;;5.63;100.00
58223;BME280;44020;50.890;15.796;2023-02-22T04:15:29;97646.42;;;5.63;100.00
58223;BME280;44020;50.890;15.796;2023-02-22T04:18:16;97650.06;;;5.64;100.00
58223;BME280;44020;50.890;15.796;2023-02-22T04:24:00;97647.59;;;5.68;100.00
58223;BME280;44020;50.890;15.796;2023-02-22T04:27:09;97646.52;;;5.68;99.99
58223;BME280;44020;50.890;15.796;2023-02-22T04:30:17;97647.61;;;5.68;99.97
58223;BME280;44020;50.890;15.796;2023-02-22T04:32:53;97642.48;;;5.68;99.96
58223;BME280;44020;50.890;15.796;2023-02-22T04:35:40;97640.67;;;5.69;100.00
58223;BME280;44020;50.890;15.796;2023-02-22T04:40:52;97636.73;;;5.70;99.99
58223;BME280;44020;50.890;15.796;2023-02-22T04:46:26;97637.66;;;5.69;99.88
58223;BME280;44020;50.890;15.796;2023-02-22T04:49:06;97634.11;;;5.70;99.97
58223;BME280;44020;50.890;15.796;2023-02-22T04:51:36;97634.08;;;5.70;99.92
58223;BME280;44020;50.890;15.796;2023-02-22T04:54:33;97631.67;;;5.69;99.87
58223;BME280;44020;50.890;15.796;2023-02-22T04:57:21;97628.01;;;5.68;99.94
58223;BME280;44020;50.890;15.796;2023-02-22T05:00:10;97627.66;;;5.68;99.75
58223;BME280;44020;50.890;15.796;2023-02-22T05:03:21;97623.93;;;5.69;99.96
58223;BME280;44020;50.890;15.796;2023-02-22T05:06:12;97619.05;;;5.68;99.86
58223;BME280;44020;50.890;15.796;2023-02-22T05:21:43;97612.39;;;5.63;99.86
58223;BME280;44020;50.890;15.796;2023-02-22T05:30:42;97611.55;;;5.62;100.00
58223;BME280;44020;50.890;15.796;2023-02-22T05:33:38;97611.39;;;5.59;99.97
58223;BME280;44020;50.890;15.796;2023-02-22T05:36:20;97609.44;;;5.59;100.00
58223;BME280;44020;50.890;15.796;2023-02-22T05:38:46;97612.77;;;5.59;100.00
58223;BME280;44020;50.890;15.796;2023-02-22T05:44:33;97618.44;;;5.62;100.00
58223;BME280;44020;50.890;15.796;2023-02-22T05:50:13;97626.55;;;5.66;100.00
58223;BME280;44020;50.890;15.796;2023-02-22T05:52:52;97624.41;;;5.66;100.00
58223;BME280;44020;50.890;15.796;2023-02-22T05:58:50;97633.80;;;5.69;100.00
58223;BME280;44020;50.890;15.796;2023-02-22T06:01:18;97634.55;;;5.68;100.00
58223;BME280;44020;50.890;15.796;2023-02-22T06:03:50;97637.21;;;5.67;99.95
58223;BME280;44020;50.890;15.796;2023-02-22T06:06:27;97638.69;;;5.66;99.95
58223;BME280;44020;50.890;15.796;2023-02-22T06:09:15;97636.15;;;5.67;99.99
58223;BME280;44020;50.890;15.796;2023-02-22T06:11:43;97637.05;;;5.67;100.00
58223;BME280;44020;50.890;15.796;2023-02-22T06:14:10;97639.83;;;5.68;100.00
58223;BME280;44020;50.890;15.796;2023-02-22T06:19:46;97643.56;;;5.68;99.95
58223;BME280;44020;50.890;15.796;2023-02-22T06:22:40;97644.30;;;5.67;99.85
58223;BME280;44020;50.890;15.796;2023-02-22T06:25:30;97643.45;;;5.66;99.95
58223;BME280;44020;50.890;15.796;2023-02-22T06:27:58;97642.08;;;5.65;99.92
58223;BME280;44020;50.890;15.796;2023-02-22T06:33:14;97648.15;;;5.67;99.88
58223;BME280;44020;50.890;15.796;2023-02-22T06:35:45;97646.88;;;5.68;99.90
58223;BME280;44020;50.890;15.796;2023-02-22T06:45:04;97654.17;;;5.70;100.00
58223;BME280;44020;50.890;15.796;2023-02-22T06:50:46;97655.74;;;5.71;99.96
58223;BME280;44020;50.890;15.796;2023-02-22T06:53:29;97655.77;;;5.70;99.96
58223;BME280;44020;50.890;15.796;2023-02-22T06:59:28;97659.97;;;5.71;100.00
58223;BME280;44020;50.890;15.796;2023-02-22T07:02:19;97662.30;;;5.70;100.00
58223;BME280;44020;50.890;15.796;2023-02-22T07:04:49;97661.23;;;5.70;99.98
58223;BME280;44020;50.890;15.796;2023-02-22T07:07:30;97660.86;;;5.67;99.95
58223;BME280;44020;50.890;15.796;2023-02-22T07:12:40;97661.88;;;5.68;99.99
58223;BME280;44020;50.890;15.796;2023-02-22T07:15:11;97661.49;;;5.68;100.00
58223;BME280;44020;50.890;15.796;2023-02-22T07:18:49;97666.20;;;5.69;100.00
58223;BME280;44020;50.890;15.796;2023-02-22T07:25:03;97665.00;;;5.72;100.00
58223;BME280;44020;50.890;15.796;2023-02-22T07:30:50;97666.58;;;5.75;100.00
58223;BME280;44020;50.890;15.796;2023-02-22T07:37:23;97663.14;;;5.77;99.96
58223;BME280;44020;50.890;15.796;2023-02-22T07:46:10;97667.77;;;5.83;99.93
58223;BME280;44020;50.890;15.796;2023-02-22T07:49:14;97670.39;;;5.87;99.97
58223;BME280;44020;50.890;15.796;2023-02-22T07:51:45;97665.75;;;5.88;100.00
58223;BME280;44020;50.890;15.796;2023-02-22T07:54:12;97665.09;;;5.91;100.00
58223;BME280;44020;50.890;15.796;2023-02-22T07:56:47;97665.63;;;5.94;99.97
58223;BME280;44020;50.890;15.796;2023-02-22T07:59:15;97663.48;;;5.95;100.00
58223;BME280;44020;50.890;15.796;2023-02-22T08:01:52;97663.16;;;5.98;100.00
58223;BME280;44020;50.890;15.796;2023-02-22T08:04:39;97665.08;;;6.02;100.00
58223;BME280;44020;50.890;15.796;2023-02-22T08:07:09;97664.60;;;6.07;100.00
58223;BME280;44020;50.890;15.796;2023-02-22T08:09:36;97667.33;;;6.13;100.00
58223;BME280;44020;50.890;15.796;2023-02-22T08:12:04;97671.56;;;6.16;100.00
58223;BME280;44020;50.890;15.796;2023-02-22T08:14:40;97666.95;;;6.20;100.00
58223;BME280;44020;50.890;15.796;2023-02-22T08:17:08;97668.44;;;6.25;100.00
58223;BME280;44020;50.890;15.796;2023-02-22T08:19:43;97664.82;;;6.30;100.00
58223;BME280;44020;50.890;15.796;2023-02-22T08:22:20;97661.78;;;6.34;100.00
58223;BME280;44020;50.890;15.796;2023-02-22T08:24:48;97659.30;;;6.38;100.00
58223;BME280;44020;50.890;15.796;2023-02-22T08:28:06;97665.52;;;6.43;100.00
58223;BME280;44020;50.890;15.796;2023-02-22T08:30:24;97661.62;;;6.50;100.00
58223;BME280;44020;50.890;15.796;2023-02-22T08:32:52;97664.35;;;6.55;100.00
58223;BME280;44020;50.890;15.796;2023-02-22T08:35:20;97665.76;;;6.58;100.00
58223;BME280;44020;50.890;15.796;2023-02-22T08:37:50;97668.73;;;6.62;100.00
58223;BME280;44020;50.890;15.796;2023-02-22T08:40:20;97666.05;;;6.65;99.97
58223;BME280;44020;50.890;15.796;2023-02-22T08:42:50;97665.96;;;6.67;99.83
58223;BME280;44020;50.890;15.796;2023-02-22T08:45:18;97661.85;;;6.68;99.79
58223;BME280;44020;50.890;15.796;2023-02-22T08:47:46;97661.84;;;6.71;99.94
58223;BME280;44020;50.890;15.796;2023-02-22T08:50:19;97659.36;;;6.78;99.90
58223;BME280;44020;50.890;15.796;2023-02-22T08:52:49;97662.45;;;6.86;99.86
58223;BME280;44020;50.890;15.796;2023-02-22T08:55:24;97663.13;;;6.90;99.81
58223;BME280;44020;50.890;15.796;2023-02-22T08:57:55;97659.92;;;6.96;99.86
58223;BME280;44020;50.890;15.796;2023-02-22T09:04:06;97657.36;;;7.01;99.30
58223;BME280;44020;50.890;15.796;2023-02-22T09:06:44;97656.51;;;7.01;98.88
58223;BME280;44020;50.890;15.796;2023-02-22T09:09:24;97652.81;;;7.03;99.16
58223;BME280;44020;50.890;15.796;2023-02-22T09:11:52;97651.50;;;7.08;99.03
58223;BME280;44020;50.890;15.796;2023-02-22T09:14:19;97649.61;;;7.13;98.99
58223;BME280;44020;50.890;15.796;2023-02-22T09:16:52;97655.31;;;7.18;99.15
58223;BME280;44020;50.890;15.796;2023-02-22T09:19:20;97657.90;;;7.23;99.15
58223;BME280;44020;50.890;15.796;2023-02-22T09:21:54;97654.99;;;7.27;99.06
58223;BME280;44020;50.890;15.796;2023-02-22T09:24:32;97654.65;;;7.30;98.62
58223;BME280;44020;50.890;15.796;2023-02-22T09:27:19;97656.26;;;7.33;98.76
58223;BME280;44020;50.890;15.796;2023-02-22T09:29:49;97652.70;;;7.36;98.76
58223;BME280;44020;50.890;15.796;2023-02-22T09:32:19;97650.95;;;7.42;98.64
58223;BME280;44020;50.890;15.796;2023-02-22T09:34:47;97650.58;;;7.45;98.45
58223;BME280;44020;50.890;15.796;2023-02-22T09:37:29;97652.08;;;7.47;98.28
58223;BME280;44020;50.890;15.796;2023-02-22T09:46:34;97643.77;;;7.65;98.11
58223;BME280;44020;50.890;15.796;2023-02-22T09:49:24;97643.52;;;7.69;97.81
58223;BME280;44020;50.890;15.796;2023-02-22T09:57:45;97642.38;;;7.82;96.69
58223;BME280;44020;50.890;15.796;2023-02-22T10:00:19;97640.59;;;7.86;96.77
58223;BME280;44020;50.890;15.796;2023-02-22T10:06:03;97641.60;;;7.92;96.16
58223;BME280;44020;50.890;15.796;2023-02-22T10:12:44;97634.40;;;8.00;96.08
58223;BME280;44020;50.890;15.796;2023-02-22T10:19:16;97627.95;;;8.12;95.73
58223;BME280;44020;50.890;15.796;2023-02-22T10:25:10;97629.20;;;8.27;95.36
58223;BME280;44020;50.890;15.796;2023-02-22T10:28:18;97626.69;;;8.31;94.77
58223;BME280;44020;50.890;15.796;2023-02-22T10:31:18;97625.09;;;8.33;94.71
58223;BME280;44020;50.890;15.796;2023-02-22T10:34:14;97626.27;;;8.37;94.51
58223;BME280;44020;50.890;15.796;2023-02-22T10:43:53;97620.80;;;8.57;93.70
58223;BME280;44020;50.890;15.796;2023-02-22T10:49:23;97610.79;;;8.70;93.48
58223;BME280;44020;50.890;15.796;2023-02-22T10:52:37;97610.86;;;8.77;93.35
58223;BME280;44020;50.890;15.796;2023-02-22T10:55:17;97604.33;;;8.85;93.02
58223;BME280;44020;50.890;15.796;2023-02-22T11:00:51;97598.77;;;9.05;93.12
58223;BME280;44020;50.890;15.796;2023-02-22T11:03:21;97600.17;;;9.16;93.09
58223;BME280;44020;50.890;15.796;2023-02-22T11:10:21;97600.36;;;9.37;92.95
58223;BME280;44020;50.890;15.796;2023-02-22T11:21:26;97592.59;;;9.58;91.40
58223;BME280;44020;50.890;15.796;2023-02-22T11:24:14;97591.73;;;9.63;91.27
58223;BME280;44020;50.890;15.796;2023-02-22T11:27:04;97590.76;;;9.69;90.81
58223;BME280;44020;50.890;15.796;2023-02-22T11:36:40;97588.85;;;9.71;89.25
58223;BME280;44020;50.890;15.796;2023-02-22T12:18:03;97563.41;;;10.36;84.49
58223;BME280;44020;50.890;15.796;2023-02-22T12:21:06;97562.52;;;10.36;83.79
58223;BME280;44020;50.890;15.796;2023-02-22T12:38:03;97551.83;;;10.75;82.04
58223;BME280;44020;50.890;15.796;2023-02-22T12:53:27;97552.64;;;10.76;80.22
58223;BME280;44020;50.890;15.796;2023-02-22T13:02:50;97538.91;;;10.77;79.84
58223;BME280;44020;50.890;15.796;2023-02-22T13:05:44;97541.74;;;10.77;79.80
58223;BME280;44020;50.890;15.796;2023-02-22T13:08:39;97535.71;;;10.77;79.85
58223;BME280;44020;50.890;15.796;2023-02-22T13:17:53;97538.86;;;10.87;79.39
58223;BME280;44020;50.890;15.796;2023-02-22T13:54:02;97529.30;;;10.35;78.63
58223;BME280;44020;50.890;15.796;2023-02-22T13:56:32;97529.40;;;10.29;78.59
58223;BME280;44020;50.890;15.796;2023-02-22T13:59:27;97529.25;;;10.26;78.87
58223;BME280;44020;50.890;15.796;2023-02-22T14:06:34;97529.04;;;10.27;78.62
58223;BME280;44020;50.890;15.796;2023-02-22T14:12:49;97534.30;;;10.23;78.69
58223;BME280;44020;50.890;15.796;2023-02-22T14:19:23;97528.15;;;10.24;78.80
58223;BME280;44020;50.890;15.796;2023-02-22T14:21:58;97527.56;;;10.25;78.72
58223;BME280;44020;50.890;15.796;2023-02-22T14:27:40;97527.95;;;10.30;79.09
58223;BME280;44020;50.890;15.796;2023-02-22T14:43:42;97526.88;;;10.32;79.15
58223;BME280;44020;50.890;15.796;2023-02-22T14:46:34;97526.80;;;10.28;79.30
58223;BME280;44020;50.890;15.796;2023-02-22T14:50:21;97527.64;;;10.26;79.17
58223;BME280;44020;50.890;15.796;2023-02-22T14:53:35;97534.36;;;10.16;79.01
58223;BME280;44020;50.890;15.796;2023-02-22T14:56:22;97531.23;;;10.10;79.35
58223;BME280;44020;50.890;15.796;2023-02-22T15:03:17;97527.55;;;10.07;79.23
58223;BME280;44020;50.890;15.796;2023-02-22T15:05:45;97525.43;;;10.00;79.27
58223;BME280;44020;50.890;15.796;2023-02-22T15:12:19;97522.27;;;9.89;79.58
58223;BME280;44020;50.890;15.796;2023-02-22T15:16:17;97525.82;;;9.82;79.63
58223;BME280;44020;50.890;15.796;2023-02-22T15:22:24;97527.21;;;9.72;79.83
58223;BME280;44020;50.890;15.796;2023-02-22T15:25:22;97528.91;;;9.68;79.72
58223;BME280;44020;50.890;15.796;2023-02-22T15:31:41;97523.83;;;9.51;79.84
58223;BME280;44020;50.890;15.796;2023-02-22T15:34:30;97523.83;;;9.46;79.88
58223;BME280;44020;50.890;15.796;2023-02-22T15:44:04;97530.05;;;9.33;79.74
58223;BME280;44020;50.890;15.796;2023-02-22T15:46:48;97530.39;;;9.26;80.06
58223;BME280;44020;50.890;15.796;2023-02-22T15:53:21;97532.13;;;9.18;80.39
58223;BME280;44020;50.890;15.796;2023-02-22T15:56:39;97529.41;;;9.14;80.29
58223;BME280;44020;50.890;15.796;2023-02-22T16:01:59;97526.68;;;9.10;80.62
58223;BME280;44020;50.890;15.796;2023-02-22T16:04:41;97528.23;;;9.10;80.61
58223;BME280;44020;50.890;15.796;2023-02-22T16:10:31;97530.29;;;9.01;80.77
58223;BME280;44020;50.890;15.796;2023-02-22T16:13:09;97528.73;;;8.97;80.59
58223;BME280;44020;50.890;15.796;2023-02-22T16:16:00;97527.52;;;8.94;80.75
58223;BME280;44020;50.890;15.796;2023-02-22T16:18:32;97534.10;;;8.91;80.67
58223;BME280;44020;50.890;15.796;2023-02-22T16:21:09;97535.15;;;8.86;80.75
58223;BME280;44020;50.890;15.796;2023-02-22T16:24:03;97532.68;;;8.83;80.98
58223;BME280;44020;50.890;15.796;2023-02-22T16:26:33;97533.30;;;8.82;80.98
58223;BME280;44020;50.890;15.796;2023-02-22T16:29:06;97536.22;;;8.81;81.00
58223;BME280;44020;50.890;15.796;2023-02-22T16:31:37;97537.39;;;8.79;80.89
58223;BME280;44020;50.890;15.796;2023-02-22T16:34:16;97538.60;;;8.74;80.98
58223;BME280;44020;50.890;15.796;2023-02-22T16:36:52;97539.77;;;8.72;81.08
58223;BME280;44020;50.890;15.796;2023-02-22T16:39:36;97541.96;;;8.71;81.13
58223;BME280;44020;50.890;15.796;2023-02-22T16:42:14;97544.62;;;8.69;81.08
58223;BME280;44020;50.890;15.796;2023-02-22T16:44:48;97544.10;;;8.63;81.12
58223;BME280;44020;50.890;15.796;2023-02-22T16:50:36;97548.86;;;8.52;81.30
58223;BME280;44020;50.890;15.796;2023-02-22T16:53:29;97552.70;;;8.50;81.34
58223;BME280;44020;50.890;15.796;2023-02-22T16:56:04;97548.81;;;8.47;81.33
58223;BME280;44020;50.890;15.796;2023-02-22T16:58:47;97549.45;;;8.43;81.50
58223;BME280;44020;50.890;15.796;2023-02-22T17:01:49;97550.95;;;8.42;81.49
58223;BME280;44020;50.890;15.796;2023-02-22T17:04:24;97550.72;;;8.40;81.53
58223;BME280;44020;50.890;15.796;2023-02-22T17:06:54;97550.27;;;8.35;81.47
58223;BME280;44020;50.890;15.796;2023-02-22T17:09:35;97551.80;;;8.28;81.45
58223;BME280;44020;50.890;15.796;2023-02-22T17:12:06;97552.30;;;8.20;81.53
58223;BME280;44020;50.890;15.796;2023-02-22T17:14:35;97547.94;;;8.16;81.95
58223;BME280;44020;50.890;15.796;2023-02-22T17:17:03;97551.18;;;8.16;81.88
58223;BME280;44020;50.890;15.796;2023-02-22T17:19:31;97549.96;;;8.12;81.99
58223;BME280;44020;50.890;15.796;2023-02-22T17:22:01;97545.71;;;8.09;82.08
58223;BME280;44020;50.890;15.796;2023-02-22T17:24:32;97548.63;;;8.05;82.14
58223;BME280;44020;50.890;15.796;2023-02-22T17:27:20;97549.64;;;8.00;82.22
58223;BME280;44020;50.890;15.796;2023-02-22T17:30:09;97550.67;;;7.98;82.42
58223;BME280;44020;50.890;15.796;2023-02-22T17:32:40;97552.80;;;7.95;82.21
58223;BME280;44020;50.890;15.796;2023-02-22T17:38:46;97549.81;;;7.92;82.34
58223;BME280;44020;50.890;15.796;2023-02-22T17:44:26;97549.50;;;7.83;82.25
58223;BME280;44020;50.890;15.796;2023-02-22T17:47:02;97555.64;;;7.81;82.44
58223;BME280;44020;50.890;15.796;2023-02-22T17:49:33;97557.13;;;7.80;82.56
58223;BME280;44020;50.890;15.796;2023-02-22T17:52:12;97554.30;;;7.77;82.56
58223;BME280;44020;50.890;15.796;2023-02-22T17:58:18;97555.55;;;7.67;82.71
58223;BME280;44020;50.890;15.796;2023-02-22T18:00:51;97554.80;;;7.65;82.65
58223;BME280;44020;50.890;15.796;2023-02-22T18:10:41;97552.21;;;7.61;82.68
58223;BME280;44020;50.890;15.796;2023-02-22T18:13:28;97555.27;;;7.60;82.96
58223;BME280;44020;50.890;15.796;2023-02-22T18:16:15;97553.90;;;7.57;82.86
58223;BME280;44020;50.890;15.796;2023-02-22T18:19:06;97546.91;;;7.53;83.04
58223;BME280;44020;50.890;15.796;2023-02-22T18:21:47;97546.47;;;7.48;82.62
58223;BME280;44020;50.890;15.796;2023-02-22T18:24:28;97547.64;;;7.44;83.09
58223;BME280;44020;50.890;15.796;2023-02-22T18:27:06;97544.65;;;7.40;82.80
58223;BME280;44020;50.890;15.796;2023-02-22T18:29:33;97545.42;;;7.39;83.16
58223;BME280;44020;50.890;15.796;2023-02-22T18:35:43;97550.02;;;7.34;83.03
58223;BME280;44020;50.890;15.796;2023-02-22T18:44:25;97549.46;;;7.19;83.17
58223;BME280;44020;50.890;15.796;2023-02-22T18:47:00;97549.19;;;7.17;83.25
58223;BME280;44020;50.890;15.796;2023-02-22T18:49:27;97542.69;;;7.14;83.31
58223;BME280;44020;50.890;15.796;2023-02-22T18:52:07;97545.02;;;7.10;83.44
58223;BME280;44020;50.890;15.796;2023-02-22T18:54:47;97541.38;;;7.06;83.51
58223;BME280;44020;50.890;15.796;2023-02-22T18:57:47;97540.58;;;7.04;83.51
58223;BME280;44020;50.890;15.796;2023-02-22T19:00:47;97535.81;;;7.01;83.51
58223;BME280;44020;50.890;15.796;2023-02-22T19:06:37;97535.89;;;6.92;83.68
58223;BME280;44020;50.890;15.796;2023-02-22T19:13:04;97528.59;;;6.83;83.43
58223;BME280;44020;50.890;15.796;2023-02-22T19:15:39;97526.27;;;6.77;83.79
58223;BME280;44020;50.890;15.796;2023-02-22T19:21:46;97526.73;;;6.69;83.79
58223;BME280;44020;50.890;15.796;2023-02-22T19:27:27;97525.23;;;6.59;83.98
58223;BME280;44020;50.890;15.796;2023-02-22T19:30:14;97522.44;;;6.55;84.08
58223;BME280;44020;50.890;15.796;2023-02-22T19:32:45;97521.50;;;6.53;84.19
58223;BME280;44020;50.890;15.796;2023-02-22T19:35:33;97522.24;;;6.49;84.31
58223;BME280;44020;50.890;15.796;2023-02-22T19:41:40;97520.13;;;6.36;83.97
58223;BME280;44020;50.890;15.796;2023-02-22T19:47:34;97517.67;;;6.27;84.03
58223;BME280;44020;50.890;15.796;2023-02-22T19:50:16;97515.34;;;6.24;84.42
58223;BME280;44020;50.890;15.796;2023-02-22T19:53:07;97512.38;;;6.20;84.39
58223;BME280;44020;50.890;15.796;2023-02-22T19:55:43;97508.95;;;6.15;84.47
58223;BME280;44020;50.890;15.796;2023-02-22T20:05:09;97508.80;;;5.92;83.95
58223;BME280;44020;50.890;15.796;2023-02-22T20:14:00;97502.76;;;5.80;84.41
58223;BME280;44020;50.890;15.796;2023-02-22T20:21:23;97503.33;;;5.76;84.69
58223;BME280;44020;50.890;15.796;2023-02-22T20:23:47;97504.05;;;5.75;84.92
58223;BME280;44020;50.890;15.796;2023-02-22T20:34:08;97498.73;;;5.60;84.95
58223;BME280;44020;50.890;15.796;2023-02-22T20:43:47;97494.28;;;5.37;84.65
58223;BME280;44020;50.890;15.796;2023-02-22T20:46:17;97489.61;;;5.33;85.05
58223;BME280;44020;50.890;15.796;2023-02-22T20:49:18;97490.36;;;5.28;85.08
58223;BME280;44020;50.890;15.796;2023-02-22T20:54:55;97484.51;;;5.22;85.41
58223;BME280;44020;50.890;15.796;2023-02-22T20:57:45;97484.87;;;5.19;85.12
58223;BME280;44020;50.890;15.796;2023-02-22T21:00:16;97479.83;;;5.14;85.19
58223;BME280;44020;50.890;15.796;2023-02-22T21:06:05;97477.84;;;5.08;85.31
58223;BME280;44020;50.890;15.796;2023-02-22T21:11:52;97482.74;;;4.98;85.39
58223;BME280;44020;50.890;15.796;2023-02-22T21:14:41;97475.21;;;4.94;85.40
58223;BME280;44020;50.890;15.796;2023-02-22T21:17:21;97476.77;;;4.91;85.78
58223;BME280;44020;50.890;15.796;2023-02-22T21:20:17;97471.59;;;4.89;85.79
58223;BME280;44020;50.890;15.796;2023-02-22T21:23:15;97471.90;;;4.87;85.75
58223;BME280;44020;50.890;15.796;2023-02-22T21:26:14;97474.32;;;4.80;85.59
58223;BME280;44020;50.890;15.796;2023-02-22T21:28:53;97475.03;;;4.77;85.45
58223;BME280;44020;50.890;15.796;2023-02-22T21:31:35;97473.23;;;4.74;85.34
58223;BME280;44020;50.890;15.796;2023-02-22T21:34:29;97473.02;;;4.72;85.27
58223;BME280;44020;50.890;15.796;2023-02-22T21:37:00;97472.87;;;4.64;85.06
58223;BME280;44020;50.890;15.796;2023-02-22T21:39:27;97468.79;;;4.61;85.06
58223;BME280;44020;50.890;15.796;2023-02-22T21:42:21;97469.48;;;4.58;85.08
58223;BME280;44020;50.890;15.796;2023-02-22T21:45:02;97465.09;;;4.54;85.02
58223;BME280;44020;50.890;15.796;2023-02-22T21:47:44;97461.08;;;4.50;85.08
58223;BME280;44020;50.890;15.796;2023-02-22T21:50:18;97460.91;;;4.46;84.80
58223;BME280;44020;50.890;15.796;2023-02-22T21:52:58;97457.48;;;4.41;84.71
58223;BME280;44020;50.890;15.796;2023-02-22T21:55:39;97457.70;;;4.33;84.45
58223;BME280;44020;50.890;15.796;2023-02-22T21:58:18;97456.95;;;4.23;84.62
58223;BME280;44020;50.890;15.796;2023-02-22T22:01:03;97456.31;;;4.14;84.59
58223;BME280;44020;50.890;15.796;2023-02-22T22:04:39;97457.07;;;4.10;84.76
58223;BME280;44020;50.890;15.796;2023-02-22T22:07:22;97459.73;;;4.05;84.53
58223;BME280;44020;50.890;15.796;2023-02-22T22:10:10;97459.10;;;3.97;84.45
58223;BME280;44020;50.890;15.796;2023-02-22T22:13:18;97459.02;;;3.87;84.42
58223;BME280;44020;50.890;15.796;2023-02-22T22:16:15;97455.79;;;3.81;84.55
58223;BME280;44020;50.890;15.796;2023-02-22T22:19:16;97456.61;;;3.82;84.60
58223;BME280;44020;50.890;15.796;2023-02-22T22:25:42;97452.19;;;3.83;84.63
58223;BME280;44020;50.890;15.796;2023-02-22T22:28:44;97452.66;;;3.80;84.52
58223;BME280;44020;50.890;15.796;2023-02-22T22:31:36;97444.16;;;3.78;84.48
58223;BME280;44020;50.890;15.796;2023-02-22T22:37:59;97441.46;;;3.68;84.38
58223;BME280;44020;50.890;15.796;2023-02-22T22:40:58;97445.94;;;3.59;84.45
58223;BME280;44020;50.890;15.796;2023-02-22T22:44:15;97443.88;;;3.58;84.29
58223;BME280;44020;50.890;15.796;2023-02-22T22:50:34;97439.02;;;3.53;84.36
58223;BME280;44020;50.890;15.796;2023-02-22T22:53:14;97438.57;;;3.51;84.38
58223;BME280;44020;50.890;15.796;2023-02-22T22:59:41;97434.00;;;3.40;84.04
58223;BME280;44020;50.890;15.796;2023-02-22T23:02:40;97435.71;;;3.33;84.23
58223;BME280;44020;50.890;15.796;2023-02-22T23:05:39;97432.56;;;3.29;84.30
58223;BME280;44020;50.890;15.796;2023-02-22T23:09:08;97437.23;;;3.27;84.39
58223;BME280;44020;50.890;15.796;2023-02-22T23:14:44;97433.25;;;3.18;84.54
58223;BME280;44020;50.890;15.796;2023-02-22T23:17:32;97430.80;;;3.18;84.79
58223;BME280;44020;50.890;15.796;2023-02-22T23:20:19;97426.46;;;3.17;84.93
58223;BME280;44020;50.890;15.796;2023-02-22T23:26:50;97428.31;;;3.18;85.23
58223;BME280;44020;50.890;15.796;2023-02-22T23:29:27;97429.34;;;3.19;85.34